KMKO

Details ICAO KMKO (MKO)
Name DAVIS FLD
Region United States
Timezone America/Chicago (UTC-6.0)
Plans Departing 3
Arriving 2
Stats Elevation 612 ft / 187 m (AMSL)
Location 35.659382° -95.362130°
Runways 3
Magnetic Variation 2.330° E
Sunrise 2017-12-11 13:22:39 UTC / 2017-12-11 07:22:39 Local
Sunset 2017-12-11 23:09:54 UTC / 2017-12-11 17:09:54 Local
Advertisement - Login to hide

Runways

ID Width Length Bearing (true) Bearing (mag) Surface Threshold Offset Overrun Length
04 75 ft / 23 m 4,501 ft / 1,372 m 46.43° 44.10° Asphalt 0 ft / 0 m 0 ft / 0 m
13 150 ft / 46 m 7,203 ft / 2,196 m 136.69° 134.36° Concrete 0 ft / 0 m 1,000 ft / 305 m
18 60 ft / 18 m 1,906 ft / 581 m 180.00° 177.67° Asphalt 0 ft / 0 m 0 ft / 0 m
22 75 ft / 23 m 4,501 ft / 1,372 m 226.44° 224.11° Asphalt 0 ft / 0 m 0 ft / 0 m
31 150 ft / 46 m 7,203 ft / 2,196 m 316.70° 314.37° Concrete 0 ft / 0 m 1,000 ft / 305 m
36 60 ft / 18 m 1,906 ft / 581 m 0.00° 357.67° Asphalt 0 ft / 0 m 0 ft / 0 m

Map

Weather


0- 5 10 15 20 25 30 35+ Temperature / ° C

Clouds and Precipitation
Forecast for 2017-12-12 06:00 UTC. Updated an hour ago

Ground ~20,000 ft ~40,000 ft Winds

METAR

KMKO 120353Z AUTO 34014G21KT 10SM CLR 11/M03 A3021 RMK AO2 SLP229 T01111028

TAF

Not found

Frequencies

Recorded 135.02 MHz ASOS
Unicom 122.80 MHz CTAF/UNICOM
Warning: Do not use this data for real-world aviation or navigation. No guarantee of current accuracy is given.